sensor_id;sensor_type;location;lat;lon;timestamp;pressure;altitude;pressure_sealevel;temperature;humidity
50684;BME280;36654;45.042;38.994;2023-01-01T00:00:09;102725.97;;;8.00;85.99
50684;BME280;36654;45.042;38.994;2023-01-01T00:02:34;102713.09;;;7.90;85.62
50684;BME280;36654;45.042;38.994;2023-01-01T00:05:00;102736.38;;;7.97;85.50
50684;BME280;36654;45.042;38.994;2023-01-01T00:07:26;102719.72;;;7.82;84.84
50684;BME280;36654;45.042;38.994;2023-01-01T00:09:51;102734.16;;;7.72;84.06
50684;BME280;36654;45.042;38.994;2023-01-01T00:12:35;102734.38;;;7.61;84.03
50684;BME280;36654;45.042;38.994;2023-01-01T00:15:01;102728.03;;;7.57;84.31
50684;BME280;36654;45.042;38.994;2023-01-01T00:17:28;102694.25;;;7.35;84.52
50684;BME280;36654;45.042;38.994;2023-01-01T00:19:54;102718.06;;;7.51;84.95
50684;BME280;36654;45.042;38.994;2023-01-01T00:22:20;102723.66;;;7.57;85.53
50684;BME280;36654;45.042;38.994;2023-01-01T00:24:45;102733.25;;;7.72;85.62
50684;BME280;36654;45.042;38.994;2023-01-01T00:27:11;102714.66;;;7.70;85.80
50684;BME280;36654;45.042;38.994;2023-01-01T00:29:37;102725.16;;;7.85;85.66
50684;BME280;36654;45.042;38.994;2023-01-01T00:32:03;102696.19;;;7.70;85.18
50684;BME280;36654;45.042;38.994;2023-01-01T00:34:29;102732.75;;;7.95;84.86
50684;BME280;36654;45.042;38.994;2023-01-01T00:36:56;102718.53;;;7.93;84.60
50684;BME280;36654;45.042;38.994;2023-01-01T00:39:21;102730.50;;;8.03;84.06
50684;BME280;36654;45.042;38.994;2023-01-01T00:41:47;102726.13;;;8.04;83.99
50684;BME280;36654;45.042;38.994;2023-01-01T00:44:12;102727.63;;;7.98;83.51
50684;BME280;36654;45.042;38.994;2023-01-01T00:46:38;102723.75;;;7.92;83.26
50684;BME280;36654;45.042;38.994;2023-01-01T00:49:04;102705.25;;;7.75;82.94
50684;BME280;36654;45.042;38.994;2023-01-01T00:51:29;102725.00;;;7.82;83.00
50684;BME280;36654;45.042;38.994;2023-01-01T00:53:55;102721.78;;;7.71;82.84
50684;BME280;36654;45.042;38.994;2023-01-01T00:56:21;102716.50;;;7.71;82.74
50684;BME280;36654;45.042;38.994;2023-01-01T00:58:46;102724.16;;;7.67;82.71
50684;BME280;36654;45.042;38.994;2023-01-01T01:01:12;102713.25;;;7.61;82.86
50684;BME280;36654;45.042;38.994;2023-01-01T01:03:38;102704.53;;;7.62;82.91
50684;BME280;36654;45.042;38.994;2023-01-01T01:08:34;102698.09;;;7.56;82.94
50684;BME280;36654;45.042;38.994;2023-01-01T01:11:20;102706.00;;;7.56;82.99
50684;BME280;36654;45.042;38.994;2023-01-01T01:13:47;102704.34;;;7.59;82.95
50684;BME280;36654;45.042;38.994;2023-01-01T01:16:20;102712.34;;;7.60;83.13
50684;BME280;36654;45.042;38.994;2023-01-01T01:18:49;102695.63;;;7.60;82.99
50684;BME280;36654;45.042;38.994;2023-01-01T01:21:16;102666.31;;;7.39;83.01
50684;BME280;36654;45.042;38.994;2023-01-01T01:23:42;102715.09;;;7.62;83.17
50684;BME280;36654;45.042;38.994;2023-01-01T01:26:20;102716.56;;;7.56;82.48
50684;BME280;36654;45.042;38.994;2023-01-01T01:28:46;102708.78;;;7.43;82.32
50684;BME280;36654;45.042;38.994;2023-01-01T01:31:12;102711.91;;;7.36;81.97
50684;BME280;36654;45.042;38.994;2023-01-01T01:33:38;102685.88;;;7.11;81.93
50684;BME280;36654;45.042;38.994;2023-01-01T01:36:04;102707.25;;;7.16;82.02
50684;BME280;36654;45.042;38.994;2023-01-01T01:38:31;102698.16;;;7.10;82.11
50684;BME280;36654;45.042;38.994;2023-01-01T01:40:57;102705.28;;;7.11;82.49
50684;BME280;36654;45.042;38.994;2023-01-01T01:46:04;102706.47;;;7.33;84.11
50684;BME280;36654;45.042;38.994;2023-01-01T01:48:34;102706.97;;;7.42;84.04
50684;BME280;36654;45.042;38.994;2023-01-01T01:51:01;102705.66;;;7.50;84.14
50684;BME280;36654;45.042;38.994;2023-01-01T01:53:29;102695.09;;;7.50;84.32
50684;BME280;36654;45.042;38.994;2023-01-01T01:56:03;102695.78;;;7.63;84.76
50684;BME280;36654;45.042;38.994;2023-01-01T01:58:32;102706.50;;;7.66;84.73
50684;BME280;36654;45.042;38.994;2023-01-01T02:00:58;102696.94;;;7.68;84.56
50684;BME280;36654;45.042;38.994;2023-01-01T02:03:54;102705.00;;;7.71;84.46
50684;BME280;36654;45.042;38.994;2023-01-01T02:06:22;102702.47;;;7.72;84.54
50684;BME280;36654;45.042;38.994;2023-01-01T02:08:49;102714.78;;;7.72;84.41
50684;BME280;36654;45.042;38.994;2023-01-01T02:11:15;102698.66;;;7.67;84.48
50684;BME280;36654;45.042;38.994;2023-01-01T02:13:41;102673.34;;;7.54;84.44
50684;BME280;36654;45.042;38.994;2023-01-01T02:18:51;102712.13;;;7.72;84.20
50684;BME280;36654;45.042;38.994;2023-01-01T02:21:33;102726.13;;;7.71;84.22
50684;BME280;36654;45.042;38.994;2023-01-01T02:24:18;102718.16;;;7.69;84.29
50684;BME280;36654;45.042;38.994;2023-01-01T02:27:02;102717.25;;;7.69;84.24
50684;BME280;36654;45.042;38.994;2023-01-01T02:29:45;102716.06;;;7.64;83.96
50684;BME280;36654;45.042;38.994;2023-01-01T02:35:01;102706.47;;;7.33;83.87
50684;BME280;36654;45.042;38.994;2023-01-01T02:37:52;102742.09;;;7.41;83.57
50684;BME280;36654;45.042;38.994;2023-01-01T02:40:22;102748.84;;;7.36;83.64
50684;BME280;36654;45.042;38.994;2023-01-01T02:42:49;102741.59;;;7.32;83.68
50684;BME280;36654;45.042;38.994;2023-01-01T02:45:17;102749.41;;;7.30;83.47
50684;BME280;36654;45.042;38.994;2023-01-01T02:47:43;102753.41;;;7.24;83.50
50684;BME280;36654;45.042;38.994;2023-01-01T02:50:27;102745.75;;;7.12;83.38
50684;BME280;36654;45.042;38.994;2023-01-01T02:53:28;102756.72;;;7.20;83.51
50684;BME280;36654;45.042;38.994;2023-01-01T02:58:48;102752.75;;;7.11;83.52
50684;BME280;36654;45.042;38.994;2023-01-01T03:01:47;102735.84;;;6.93;83.48
50684;BME280;36654;45.042;38.994;2023-01-01T03:07:20;102775.03;;;7.02;83.48
50684;BME280;36654;45.042;38.994;2023-01-01T03:10:14;102771.47;;;7.01;83.67
50684;BME280;36654;45.042;38.994;2023-01-01T03:12:50;102752.41;;;6.90;83.43
50684;BME280;36654;45.042;38.994;2023-01-01T03:18:03;102759.13;;;7.00;83.71
50684;BME280;36654;45.042;38.994;2023-01-01T03:20:32;102754.38;;;7.09;84.14
50684;BME280;36654;45.042;38.994;2023-01-01T03:23:06;102759.25;;;7.18;84.69
50684;BME280;36654;45.042;38.994;2023-01-01T03:25:48;102738.91;;;7.16;84.78
50684;BME280;36654;45.042;38.994;2023-01-01T03:28:25;102762.13;;;7.38;85.08
50684;BME280;36654;45.042;38.994;2023-01-01T03:30:53;102719.78;;;7.20;85.25
50684;BME280;36654;45.042;38.994;2023-01-01T03:35:58;102763.34;;;7.59;85.21
50684;BME280;36654;45.042;38.994;2023-01-01T03:38:33;102760.78;;;7.61;85.24
50684;BME280;36654;45.042;38.994;2023-01-01T03:41:04;102719.19;;;7.40;85.15
50684;BME280;36654;45.042;38.994;2023-01-01T03:43:53;102750.47;;;7.65;84.87
50684;BME280;36654;45.042;38.994;2023-01-01T03:46:24;102754.00;;;7.66;84.79
50684;BME280;36654;45.042;38.994;2023-01-01T03:48:51;102750.38;;;7.64;84.75
50684;BME280;36654;45.042;38.994;2023-01-01T03:54:11;102764.56;;;7.66;84.78
50684;BME280;36654;45.042;38.994;2023-01-01T03:56:48;102771.34;;;7.61;84.79
50684;BME280;36654;45.042;38.994;2023-01-01T04:01:56;102791.81;;;7.65;84.48
50684;BME280;36654;45.042;38.994;2023-01-01T04:04:23;102804.16;;;7.66;84.69
50684;BME280;36654;45.042;38.994;2023-01-01T04:06:51;102787.09;;;7.59;84.60
50684;BME280;36654;45.042;38.994;2023-01-01T04:09:22;102789.00;;;7.62;84.37
50684;BME280;36654;45.042;38.994;2023-01-01T04:11:48;102780.09;;;7.60;84.35
50684;BME280;36654;45.042;38.994;2023-01-01T04:14:33;102785.53;;;7.63;84.42
50684;BME280;36654;45.042;38.994;2023-01-01T04:17:00;102776.44;;;7.57;84.42
50684;BME280;36654;45.042;38.994;2023-01-01T04:19:26;102768.69;;;7.61;84.70
50684;BME280;36654;45.042;38.994;2023-01-01T04:21:52;102763.66;;;7.65;84.70
50684;BME280;36654;45.042;38.994;2023-01-01T04:24:18;102777.97;;;7.69;84.42
50684;BME280;36654;45.042;38.994;2023-01-01T04:26:44;102755.34;;;7.57;84.48
50684;BME280;36654;45.042;38.994;2023-01-01T04:29:10;102778.88;;;7.69;84.51
50684;BME280;36654;45.042;38.994;2023-01-01T04:31:36;102774.66;;;7.73;84.60
50684;BME280;36654;45.042;38.994;2023-01-01T04:34:01;102715.91;;;7.44;84.47
50684;BME280;36654;45.042;38.994;2023-01-01T04:36:27;102771.13;;;7.72;84.31
50684;BME280;36654;45.042;38.994;2023-01-01T04:38:53;102770.38;;;7.75;84.24
50684;BME280;36654;45.042;38.994;2023-01-01T04:41:18;102775.81;;;7.78;84.04
50684;BME280;36654;45.042;38.994;2023-01-01T04:43:47;102772.53;;;7.82;84.00
50684;BME280;36654;45.042;38.994;2023-01-01T04:46:17;102754.44;;;7.73;83.85
50684;BME280;36654;45.042;38.994;2023-01-01T04:48:43;102774.00;;;7.77;83.80
50684;BME280;36654;45.042;38.994;2023-01-01T04:51:10;102770.38;;;7.75;83.56
50684;BME280;36654;45.042;38.994;2023-01-01T04:53:37;102782.72;;;7.76;83.53
50684;BME280;36654;45.042;38.994;2023-01-01T04:58:30;102773.84;;;7.74;83.47
50684;BME280;36654;45.042;38.994;2023-01-01T05:00:55;102783.66;;;7.76;83.40
50684;BME280;36654;45.042;38.994;2023-01-01T05:03:21;102776.22;;;7.69;83.44
50684;BME280;36654;45.042;38.994;2023-01-01T05:05:47;102803.13;;;7.78;83.25
50684;BME280;36654;45.042;38.994;2023-01-01T05:08:14;102795.13;;;7.77;83.15
50684;BME280;36654;45.042;38.994;2023-01-01T05:10:40;102782.66;;;7.74;83.14
50684;BME280;36654;45.042;38.994;2023-01-01T05:13:07;102783.56;;;7.75;83.40
50684;BME280;36654;45.042;38.994;2023-01-01T05:15:35;102788.00;;;7.76;83.11
50684;BME280;36654;45.042;38.994;2023-01-01T05:18:01;102722.34;;;7.49;83.25
50684;BME280;36654;45.042;38.994;2023-01-01T05:20:26;102767.72;;;7.75;83.15
50684;BME280;36654;45.042;38.994;2023-01-01T05:22:52;102737.34;;;7.50;83.13
50684;BME280;36654;45.042;38.994;2023-01-01T05:25:18;102775.50;;;7.72;83.26
50684;BME280;36654;45.042;38.994;2023-01-01T05:27:43;102767.47;;;7.70;83.15
50684;BME280;36654;45.042;38.994;2023-01-01T05:30:09;102774.41;;;7.68;83.12
50684;BME280;36654;45.042;38.994;2023-01-01T05:32:36;102783.16;;;7.67;83.27
50684;BME280;36654;45.042;38.994;2023-01-01T05:35:02;102789.97;;;7.64;83.27
50684;BME280;36654;45.042;38.994;2023-01-01T05:37:27;102787.53;;;7.67;83.59
50684;BME280;36654;45.042;38.994;2023-01-01T05:39:53;102794.63;;;7.68;83.68
50684;BME280;36654;45.042;38.994;2023-01-01T05:42:19;102790.16;;;7.67;83.34
50684;BME280;36654;45.042;38.994;2023-01-01T05:44:44;102784.69;;;7.64;83.52
50684;BME280;36654;45.042;38.994;2023-01-01T05:47:10;102775.06;;;7.64;83.85
50684;BME280;36654;45.042;38.994;2023-01-01T05:49:36;102762.78;;;7.65;83.72
50684;BME280;36654;45.042;38.994;2023-01-01T05:52:02;102743.41;;;7.64;83.97
50684;BME280;36654;45.042;38.994;2023-01-01T05:54:28;102738.69;;;7.75;83.85
50684;BME280;36654;45.042;38.994;2023-01-01T05:56:53;102726.47;;;7.77;83.83
50684;BME280;36654;45.042;38.994;2023-01-01T05:59:19;102731.03;;;7.80;83.79
50684;BME280;36654;45.042;38.994;2023-01-01T06:01:45;102719.72;;;7.82;83.59
50684;BME280;36654;45.042;38.994;2023-01-01T06:04:10;102714.44;;;7.82;83.33
50684;BME280;36654;45.042;38.994;2023-01-01T06:06:36;102698.59;;;7.82;83.28
50684;BME280;36654;45.042;38.994;2023-01-01T06:09:04;102699.50;;;7.83;83.39
50684;BME280;36654;45.042;38.994;2023-01-01T06:11:30;102708.41;;;7.85;83.44
50684;BME280;36654;45.042;38.994;2023-01-01T06:13:58;102730.59;;;7.88;83.40
50684;BME280;36654;45.042;38.994;2023-01-01T06:16:25;102726.41;;;7.92;83.38
50684;BME280;36654;45.042;38.994;2023-01-01T06:18:51;102717.66;;;7.93;83.18
50684;BME280;36654;45.042;38.994;2023-01-01T06:21:19;102716.25;;;7.83;82.96
50684;BME280;36654;45.042;38.994;2023-01-01T06:23:44;102731.09;;;7.97;82.71
50684;BME280;36654;45.042;38.994;2023-01-01T06:26:14;102732.91;;;7.98;82.63
50684;BME280;36654;45.042;38.994;2023-01-01T06:28:40;102736.53;;;8.00;82.46
50684;BME280;36654;45.042;38.994;2023-01-01T06:31:07;102714.19;;;7.94;82.19
50684;BME280;36654;45.042;38.994;2023-01-01T06:33:34;102732.50;;;8.07;82.07
50684;BME280;36654;45.042;38.994;2023-01-01T06:36:04;102722.84;;;8.08;81.78
50684;BME280;36654;45.042;38.994;2023-01-01T06:38:32;102708.16;;;7.96;81.48
50684;BME280;36654;45.042;38.994;2023-01-01T06:40:59;102719.19;;;8.06;81.39
50684;BME280;36654;45.042;38.994;2023-01-01T06:43:26;102721.19;;;8.10;81.37
50684;BME280;36654;45.042;38.994;2023-01-01T06:46:06;102701.84;;;8.11;81.14
50684;BME280;36654;45.042;38.994;2023-01-01T06:48:34;102704.16;;;8.21;80.77
50684;BME280;36654;45.042;38.994;2023-01-01T06:51:04;102690.13;;;8.22;80.44
50684;BME280;36654;45.042;38.994;2023-01-01T06:53:30;102689.38;;;8.25;80.41
50684;BME280;36654;45.042;38.994;2023-01-01T06:55:56;102685.34;;;8.31;80.39
50684;BME280;36654;45.042;38.994;2023-01-01T06:58:21;102699.03;;;8.40;80.27
50684;BME280;36654;45.042;38.994;2023-01-01T07:00:47;102690.50;;;8.46;79.97
50684;BME280;36654;45.042;38.994;2023-01-01T07:03:12;102702.44;;;8.56;80.00
50684;BME280;36654;45.042;38.994;2023-01-01T07:05:38;102707.59;;;8.71;79.74
50684;BME280;36654;45.042;38.994;2023-01-01T07:08:04;102713.44;;;8.81;79.22
50684;BME280;36654;45.042;38.994;2023-01-01T07:10:29;102711.72;;;8.82;78.91
50684;BME280;36654;45.042;38.994;2023-01-01T07:12:55;102717.00;;;9.00;78.46
50684;BME280;36654;45.042;38.994;2023-01-01T07:15:20;102728.03;;;9.09;78.19
50684;BME280;36654;45.042;38.994;2023-01-01T07:17:46;102741.38;;;9.30;77.98
50684;BME280;36654;45.042;38.994;2023-01-01T07:20:12;102747.06;;;9.38;77.56
50684;BME280;36654;45.042;38.994;2023-01-01T07:22:39;102725.06;;;9.39;77.39
50684;BME280;36654;45.042;38.994;2023-01-01T07:25:06;102705.00;;;9.44;77.25
50684;BME280;36654;45.042;38.994;2023-01-01T07:27:32;102707.03;;;9.49;76.95
50684;BME280;36654;45.042;38.994;2023-01-01T07:29:58;102681.84;;;9.40;77.10
50684;BME280;36654;45.042;38.994;2023-01-01T07:32:23;102684.50;;;9.40;76.86
50684;BME280;36654;45.042;38.994;2023-01-01T07:34:49;102693.78;;;9.49;76.87
50684;BME280;36654;45.042;38.994;2023-01-01T07:37:14;102703.88;;;9.58;76.77
50684;BME280;36654;45.042;38.994;2023-01-01T07:39:40;102712.03;;;9.63;76.44
50684;BME280;36654;45.042;38.994;2023-01-01T07:42:06;102712.94;;;9.63;76.52
50684;BME280;36654;45.042;38.994;2023-01-01T07:44:31;102706.28;;;9.71;76.31
50684;BME280;36654;45.042;38.994;2023-01-01T07:47:01;102713.81;;;9.82;76.23
50684;BME280;36654;45.042;38.994;2023-01-01T07:49:27;102693.38;;;9.79;76.09
50684;BME280;36654;45.042;38.994;2023-01-01T07:51:53;102683.47;;;9.94;75.91
50684;BME280;36654;45.042;38.994;2023-01-01T07:54:19;102666.13;;;10.01;75.80
50684;BME280;36654;45.042;38.994;2023-01-01T07:56:44;102619.53;;;10.06;75.29
50684;BME280;36654;45.042;38.994;2023-01-01T07:59:10;102646.56;;;10.19;74.83
50684;BME280;36654;45.042;38.994;2023-01-01T08:01:36;102654.63;;;10.22;74.74
50684;BME280;36654;45.042;38.994;2023-01-01T08:04:02;102672.09;;;10.36;74.36
50684;BME280;36654;45.042;38.994;2023-01-01T08:06:28;102642.19;;;10.40;73.80
50684;BME280;36654;45.042;38.994;2023-01-01T08:08:54;102630.44;;;10.33;73.34
50684;BME280;36654;45.042;38.994;2023-01-01T08:11:19;102675.75;;;10.61;72.89
50684;BME280;36654;45.042;38.994;2023-01-01T08:13:45;102680.47;;;10.68;72.28
50684;BME280;36654;45.042;38.994;2023-01-01T08:16:11;102676.22;;;10.71;71.38
50684;BME280;36654;45.042;38.994;2023-01-01T08:18:36;102686.06;;;10.74;71.16
50684;BME280;36654;45.042;38.994;2023-01-01T08:21:03;102663.28;;;10.79;70.46
50684;BME280;36654;45.042;38.994;2023-01-01T08:23:29;102672.31;;;10.84;69.81
50684;BME280;36654;45.042;38.994;2023-01-01T08:26:01;102665.44;;;10.89;69.24
50684;BME280;36654;45.042;38.994;2023-01-01T08:28:27;102656.78;;;10.93;69.18
50684;BME280;36654;45.042;38.994;2023-01-01T08:30:53;102664.13;;;11.00;68.99
50684;BME280;36654;45.042;38.994;2023-01-01T08:33:19;102604.16;;;10.83;68.63
50684;BME280;36654;45.042;38.994;2023-01-01T08:35:45;102645.09;;;11.11;68.38
50684;BME280;36654;45.042;38.994;2023-01-01T08:38:11;102642.78;;;11.20;67.85
50684;BME280;36654;45.042;38.994;2023-01-01T08:40:38;102619.19;;;11.05;67.38
50684;BME280;36654;45.042;38.994;2023-01-01T08:43:03;102659.06;;;11.29;67.54
50684;BME280;36654;45.042;38.994;2023-01-01T08:45:29;102663.88;;;11.39;66.89
50684;BME280;36654;45.042;38.994;2023-01-01T08:47:55;102658.69;;;11.42;66.80
50684;BME280;36654;45.042;38.994;2023-01-01T08:50:20;102664.09;;;11.45;66.87
50684;BME280;36654;45.042;38.994;2023-01-01T08:52:46;102625.34;;;11.27;66.65
50684;BME280;36654;45.042;38.994;2023-01-01T08:55:12;102635.69;;;11.43;66.87
50684;BME280;36654;45.042;38.994;2023-01-01T08:57:37;102654.28;;;11.43;67.03
50684;BME280;36654;45.042;38.994;2023-01-01T09:00:03;102677.44;;;11.47;67.18
50684;BME280;36654;45.042;38.994;2023-01-01T09:02:30;102670.56;;;11.52;66.97
50684;BME280;36654;45.042;38.994;2023-01-01T09:04:56;102636.19;;;11.33;67.05
50684;BME280;36654;45.042;38.994;2023-01-01T09:07:21;102655.41;;;11.50;67.03
50684;BME280;36654;45.042;38.994;2023-01-01T09:09:47;102653.94;;;11.58;67.00
50684;BME280;36654;45.042;38.994;2023-01-01T09:12:15;102661.88;;;11.56;66.86
50684;BME280;36654;45.042;38.994;2023-01-01T09:14:41;102628.50;;;11.40;66.83
50684;BME280;36654;45.042;38.994;2023-01-01T09:17:06;102648.63;;;11.58;66.99
50684;BME280;36654;45.042;38.994;2023-01-01T09:19:32;102641.31;;;11.51;67.20
50684;BME280;36654;45.042;38.994;2023-01-01T09:21:58;102661.56;;;11.71;67.09
50684;BME280;36654;45.042;38.994;2023-01-01T09:24:23;102673.97;;;11.72;67.28
50684;BME280;36654;45.042;38.994;2023-01-01T09:26:49;102662.44;;;11.72;67.25
50684;BME280;36654;45.042;38.994;2023-01-01T09:29:15;102647.50;;;11.75;67.03
50684;BME280;36654;45.042;38.994;2023-01-01T09:31:47;102664.53;;;11.80;66.65
50684;BME280;36654;45.042;38.994;2023-01-01T09:34:13;102658.38;;;11.81;66.30
50684;BME280;36654;45.042;38.994;2023-01-01T09:36:39;102653.06;;;11.81;66.09
50684;BME280;36654;45.042;38.994;2023-01-01T09:39:04;102669.13;;;11.84;65.74
50684;BME280;36654;45.042;38.994;2023-01-01T09:42:22;102647.09;;;11.87;65.32
50684;BME280;36654;45.042;38.994;2023-01-01T09:47:41;102639.19;;;11.89;64.97
50684;BME280;36654;45.042;38.994;2023-01-01T09:50:17;102644.81;;;11.98;64.71
50684;BME280;36654;45.042;38.994;2023-01-01T09:53:14;102636.31;;;12.08;64.78
50684;BME280;36654;45.042;38.994;2023-01-01T09:55:49;102634.06;;;12.19;64.58
50684;BME280;36654;45.042;38.994;2023-01-01T09:58:20;102626.34;;;12.26;63.50
50684;BME280;36654;45.042;38.994;2023-01-01T10:00:50;102592.41;;;12.19;62.96
50684;BME280;36654;45.042;38.994;2023-01-01T10:17:03;102589.44;;;12.36;62.07
50684;BME280;36654;45.042;38.994;2023-01-01T10:19:45;102616.16;;;12.40;62.12
50684;BME280;36654;45.042;38.994;2023-01-01T10:22:27;102603.78;;;12.41;62.25
50684;BME280;36654;45.042;38.994;2023-01-01T10:25:06;102606.53;;;12.44;61.99
50684;BME280;36654;45.042;38.994;2023-01-01T10:27:37;102611.94;;;12.47;62.01
50684;BME280;36654;45.042;38.994;2023-01-01T10:32:39;102589.94;;;12.51;62.05
50684;BME280;36654;45.042;38.994;2023-01-01T10:35:17;102568.50;;;12.46;61.99
50684;BME280;36654;45.042;38.994;2023-01-01T10:37:44;102595.25;;;12.51;61.48
50684;BME280;36654;45.042;38.994;2023-01-01T10:40:17;102592.69;;;12.54;61.56
50684;BME280;36654;45.042;38.994;2023-01-01T10:42:49;102596.19;;;12.53;62.03
50684;BME280;36654;45.042;38.994;2023-01-01T10:45:18;102593.53;;;12.53;62.30
50684;BME280;36654;45.042;38.994;2023-01-01T10:48:15;102578.56;;;12.57;62.17
50684;BME280;36654;45.042;38.994;2023-01-01T10:50:48;102521.34;;;12.15;62.06
50684;BME280;36654;45.042;38.994;2023-01-01T10:53:36;102583.56;;;12.46;62.22
50684;BME280;36654;45.042;38.994;2023-01-01T10:56:06;102597.84;;;12.49;62.15
50684;BME280;36654;45.042;38.994;2023-01-01T11:01:28;102607.59;;;12.49;62.08
50684;BME280;36654;45.042;38.994;2023-01-01T11:04:08;102615.56;;;12.49;61.94
50684;BME280;36654;45.042;38.994;2023-01-01T11:06:43;102595.03;;;12.45;62.17
50684;BME280;36654;45.042;38.994;2023-01-01T11:09:21;102584.47;;;12.48;62.37
50684;BME280;36654;45.042;38.994;2023-01-01T11:11:54;102604.06;;;12.50;62.27
50684;BME280;36654;45.042;38.994;2023-01-01T11:14:37;102603.97;;;12.47;62.39
50684;BME280;36654;45.042;38.994;2023-01-01T11:17:03;102609.50;;;12.53;62.40
50684;BME280;36654;45.042;38.994;2023-01-01T11:19:35;102607.78;;;12.55;62.67
50684;BME280;36654;45.042;38.994;2023-01-01T11:22:02;102607.91;;;12.58;62.48
50684;BME280;36654;45.042;38.994;2023-01-01T11:24:32;102599.06;;;12.59;62.58
50684;BME280;36654;45.042;38.994;2023-01-01T11:27:23;102607.09;;;12.61;62.55
50684;BME280;36654;45.042;38.994;2023-01-01T11:29:50;102599.13;;;12.62;62.36
50684;BME280;36654;45.042;38.994;2023-01-01T11:32:33;102616.00;;;12.63;62.04
50684;BME280;36654;45.042;38.994;2023-01-01T11:35:05;102617.97;;;12.68;61.80
50684;BME280;36654;45.042;38.994;2023-01-01T11:37:39;102606.38;;;12.66;61.52
50684;BME280;36654;45.042;38.994;2023-01-01T11:40:48;102529.16;;;12.36;61.00
50684;BME280;36654;45.042;38.994;2023-01-01T11:43:06;102613.72;;;12.73;60.33
50684;BME280;36654;45.042;38.994;2023-01-01T11:45:37;102614.59;;;12.74;60.10
50684;BME280;36654;45.042;38.994;2023-01-01T11:48:10;102602.16;;;12.73;59.48
50684;BME280;36654;45.042;38.994;2023-01-01T11:50:40;102611.88;;;12.72;60.04
50684;BME280;36654;45.042;38.994;2023-01-01T11:53:39;102615.50;;;12.74;60.57
50684;BME280;36654;45.042;38.994;2023-01-01T11:56:19;102604.03;;;12.76;60.85
50684;BME280;36654;45.042;38.994;2023-01-01T11:58:59;102601.06;;;12.66;61.05
50684;BME280;36654;45.042;38.994;2023-01-01T12:06:42;102609.59;;;12.56;61.29
50684;BME280;36654;45.042;38.994;2023-01-01T12:09:33;102620.41;;;12.61;61.53
50684;BME280;36654;45.042;38.994;2023-01-01T12:12:10;102553.66;;;12.27;61.16
50684;BME280;36654;45.042;38.994;2023-01-01T12:14:43;102618.63;;;12.61;60.97
50684;BME280;36654;45.042;38.994;2023-01-01T12:17:26;102614.16;;;12.60;60.41
50684;BME280;36654;45.042;38.994;2023-01-01T12:22:38;102618.53;;;12.58;58.51
50684;BME280;36654;45.042;38.994;2023-01-01T12:25:04;102622.13;;;12.60;57.75
50684;BME280;36654;45.042;38.994;2023-01-01T12:41:13;102623.72;;;12.55;56.18
50684;BME280;36654;45.042;38.994;2023-01-01T12:43:46;102618.22;;;12.49;55.89
50684;BME280;36654;45.042;38.994;2023-01-01T12:57:39;102624.94;;;12.38;56.00
50684;BME280;36654;45.042;38.994;2023-01-01T13:00:19;102631.00;;;12.34;56.49
50684;BME280;36654;45.042;38.994;2023-01-01T13:03:18;102622.16;;;12.35;56.69
50684;BME280;36654;45.042;38.994;2023-01-01T13:05:49;102620.00;;;12.23;57.15
50684;BME280;36654;45.042;38.994;2023-01-01T13:08:16;102645.13;;;12.31;57.30
50684;BME280;36654;45.042;38.994;2023-01-01T13:10:44;102630.84;;;12.29;58.03
50684;BME280;36654;45.042;38.994;2023-01-01T13:13:11;102630.84;;;12.29;58.85
50684;BME280;36654;45.042;38.994;2023-01-01T13:18:07;102644.78;;;12.22;59.84
50684;BME280;36654;45.042;38.994;2023-01-01T13:31:14;102624.25;;;11.92;61.48
50684;BME280;36654;45.042;38.994;2023-01-01T13:33:40;102631.31;;;11.92;61.63
50684;BME280;36654;45.042;38.994;2023-01-01T13:44:11;102656.44;;;11.77;62.66
50684;BME280;36654;45.042;38.994;2023-01-01T13:57:55;102640.63;;;11.56;63.76
50684;BME280;36654;45.042;38.994;2023-01-01T14:00:33;102645.75;;;11.52;63.97
50684;BME280;36654;45.042;38.994;2023-01-01T14:03:09;102642.03;;;11.47;64.38
50684;BME280;36654;45.042;38.994;2023-01-01T14:05:40;102642.84;;;11.45;64.64
50684;BME280;36654;45.042;38.994;2023-01-01T14:08:26;102633.81;;;11.40;64.70
50684;BME280;36654;45.042;38.994;2023-01-01T14:10:53;102652.38;;;11.39;64.87
50684;BME280;36654;45.042;38.994;2023-01-01T14:13:18;102646.09;;;11.37;64.86
50684;BME280;36654;45.042;38.994;2023-01-01T14:15:53;102655.69;;;11.33;64.97
50684;BME280;36654;45.042;38.994;2023-01-01T14:18:24;102662.72;;;11.33;65.02
50684;BME280;36654;45.042;38.994;2023-01-01T14:20:53;102636.84;;;11.27;65.41
50684;BME280;36654;45.042;38.994;2023-01-01T14:23:41;102648.38;;;11.28;65.38
50684;BME280;36654;45.042;38.994;2023-01-01T14:26:17;102650.84;;;11.23;65.46
50684;BME280;36654;45.042;38.994;2023-01-01T14:28:44;102638.44;;;11.22;65.54
50684;BME280;36654;45.042;38.994;2023-01-01T14:31:18;102650.72;;;11.20;65.83
50684;BME280;36654;45.042;38.994;2023-01-01T14:33:46;102632.75;;;11.13;65.95
50684;BME280;36654;45.042;38.994;2023-01-01T14:38:50;102637.94;;;11.10;66.22
50684;BME280;36654;45.042;38.994;2023-01-01T14:41:39;102639.53;;;11.05;66.41
50684;BME280;36654;45.042;38.994;2023-01-01T14:44:11;102642.25;;;11.06;66.53
50684;BME280;36654;45.042;38.994;2023-01-01T14:46:48;102648.19;;;11.00;66.84
50684;BME280;36654;45.042;38.994;2023-01-01T14:49:36;102664.19;;;11.02;67.02
50684;BME280;36654;45.042;38.994;2023-01-01T14:52:11;102663.28;;;11.01;67.10
50684;BME280;36654;45.042;38.994;2023-01-01T14:54:41;102658.81;;;11.00;67.14
50684;BME280;36654;45.042;38.994;2023-01-01T14:57:15;102644.59;;;10.98;67.30
50684;BME280;36654;45.042;38.994;2023-01-01T14:59:47;102649.91;;;10.98;67.28